createdAt,value
2018-05-31T00:01:35.177Z,11.00
2018-05-31T00:04:02.614Z,12.10
2018-05-31T00:06:49.343Z,11.47
2018-05-31T00:09:16.818Z,12.63
2018-05-31T00:11:44.258Z,12.20
2018-05-31T00:14:11.709Z,11.60
2018-05-31T00:16:40.094Z,12.90
2018-05-31T00:19:09.454Z,13.50
2018-05-31T00:21:37.901Z,12.80
2018-05-31T00:24:07.369Z,11.30
2018-05-31T00:26:35.855Z,12.47
2018-05-31T00:29:09.873Z,13.93
2018-05-31T00:31:37.351Z,14.50
2018-05-31T00:34:06.822Z,12.17
2018-05-31T00:36:34.295Z,11.90
2018-05-31T00:39:03.627Z,12.10
2018-05-31T00:41:32.065Z,11.70
2018-05-31T00:44:02.138Z,12.20
2018-05-31T00:46:30.562Z,12.57
2018-05-31T00:48:58.025Z,11.93
2018-05-31T00:51:26.506Z,13.93
2018-05-31T00:53:54.834Z,12.80
2018-05-31T00:56:28.254Z,13.13
2018-05-31T00:58:56.630Z,11.53
2018-05-31T01:01:25.106Z,13.93
2018-05-31T01:03:52.597Z,12.00
2018-05-31T01:06:21.050Z,12.13
2018-05-31T01:08:49.454Z,11.10
2018-05-31T01:11:20.877Z,10.33
2018-05-31T01:13:49.284Z,12.00
2018-05-31T01:19:15.997Z,12.23
2018-05-31T01:21:44.579Z,11.23
2018-05-31T01:24:13.008Z,11.53
2018-05-31T01:26:41.422Z,11.47
2018-05-31T01:41:11.130Z,10.63
2018-05-31T01:43:43.540Z,11.40
2018-05-31T01:46:12.145Z,12.07
2018-05-31T02:01:02.333Z,12.83
2018-05-31T02:03:33.984Z,12.17
2018-05-31T02:24:34.230Z,14.40
2018-05-31T02:27:03.828Z,13.90
2018-05-31T02:29:40.803Z,14.50
2018-05-31T02:50:37.154Z,15.53
2018-05-31T02:53:13.036Z,16.07
2018-05-31T02:55:43.837Z,15.43
2018-05-31T03:23:00.866Z,19.53
2018-05-31T03:25:29.597Z,20.10
2018-05-31T03:28:03.278Z,19.37
2018-05-31T03:47:55.741Z,20.80
2018-05-31T04:10:26.361Z,25.10
